createdAt,value
2023-03-30T00:04:46.440Z,2313.23077
2023-03-30T00:09:48.128Z,2144
2023-03-30T00:14:49.603Z,1446.43902
2023-03-30T00:19:51.231Z,0
2023-03-30T00:24:52.829Z,0
2023-03-30T00:29:54.308Z,0
2023-03-30T00:34:55.779Z,1006.06897
2023-03-30T00:39:57.274Z,1128.61538
2023-03-30T00:44:58.694Z,1254.6383
2023-03-30T00:50:00.135Z,1344
2023-03-30T00:55:01.587Z,0
2023-03-30T01:00:03.669Z,953.83607
2023-03-30T01:05:05.138Z,970.66667
2023-03-30T01:10:06.944Z,1024.70175
2023-03-30T01:15:08.411Z,824
2023-03-30T01:20:09.854Z,849.88235
2023-03-30T01:25:11.437Z,811.60563
2023-03-30T01:30:12.974Z,765.33333
2023-03-30T01:35:14.540Z,733.74359
2023-03-30T01:40:15.953Z,765.33333
2023-03-30T01:45:17.342Z,776.43243
2023-03-30T01:50:18.937Z,891.69231
2023-03-30T01:55:20.378Z,1024.70175
2023-03-30T02:00:21.766Z,988.0678
2023-03-30T02:05:23.197Z,937.54839
2023-03-30T02:10:24.606Z,970.66667
2023-03-30T02:15:26.014Z,970.66667
2023-03-30T02:20:27.438Z,906.5
2023-03-30T02:25:28.887Z,799.55556
2023-03-30T02:30:30.279Z,836.75362
2023-03-30T02:35:32.470Z,776.43243
2023-03-30T02:40:33.898Z,744
2023-03-30T02:45:35.372Z,733.74359
2023-03-30T02:50:36.876Z,723.74684
2023-03-30T02:55:38.341Z,776.43243
2023-03-30T03:00:39.823Z,765.33333
2023-03-30T03:05:41.193Z,937.54839
2023-03-30T03:10:42.609Z,937.54839
2023-03-30T03:15:44.011Z,988.0678
2023-03-30T03:20:45.449Z,988.0678
2023-03-30T03:25:46.821Z,1044
2023-03-30T03:30:48.362Z,921.77778
2023-03-30T03:35:49.839Z,849.88235
2023-03-30T03:40:51.484Z,877.33333
2023-03-30T03:45:53.145Z,824
2023-03-30T03:50:54.661Z,877.33333
2023-03-30T03:55:56.078Z,824
2023-03-30T04:00:57.713Z,787.83562
2023-03-30T04:05:59.167Z,836.75362
2023-03-30T04:11:00.711Z,877.33333
2023-03-30T04:16:02.171Z,891.69231
2023-03-30T04:21:03.947Z,863.40299
2023-03-30T04:26:05.558Z,921.77778
2023-03-30T04:31:07.171Z,953.83607
2023-03-30T04:36:08.868Z,1006.06897
2023-03-30T04:41:10.406Z,891.69231
2023-03-30T04:46:11.887Z,877.33333
2023-03-30T04:51:13.562Z,836.75362
2023-03-30T04:56:15.243Z,824
2023-03-30T05:01:16.681Z,754.52632
2023-03-30T05:06:18.121Z,799.55556
2023-03-30T05:11:19.587Z,811.60563
2023-03-30T05:16:21.080Z,811.60563
2023-03-30T05:21:22.489Z,765.33333
2023-03-30T05:26:23.960Z,787.83562
2023-03-30T05:31:25.481Z,787.83562
2023-03-30T05:36:26.993Z,824
2023-03-30T05:41:28.406Z,836.75362
2023-03-30T05:46:29.876Z,811.60563
2023-03-30T05:51:31.578Z,799.55556
2023-03-30T05:56:33.034Z,824
2023-03-30T06:01:34.658Z,891.69231
2023-03-30T06:06:36.097Z,921.77778
2023-03-30T06:11:37.676Z,891.69231
2023-03-30T06:16:39.199Z,863.40299
2023-03-30T06:21:40.800Z,877.33333
2023-03-30T06:26:42.202Z,849.88235
2023-03-30T06:31:43.704Z,849.88235
2023-03-30T06:36:46.077Z,863.40299
2023-03-30T06:41:47.625Z,891.69231
2023-03-30T06:46:49.443Z,937.54839
2023-03-30T06:51:50.935Z,937.54839
2023-03-30T06:56:52.630Z,937.54839
2023-03-30T07:01:54.452Z,953.83607
2023-03-30T07:06:55.912Z,891.69231
2023-03-30T07:11:57.335Z,836.75362
2023-03-30T07:16:58.934Z,811.60563
2023-03-30T07:22:00.488Z,811.60563
2023-03-30T07:27:01.984Z,799.55556
2023-03-30T07:32:03.425Z,799.55556
2023-03-30T07:37:05.003Z,863.40299
2023-03-30T07:42:06.432Z,906.5
2023-03-30T07:47:07.799Z,921.77778
2023-03-30T07:52:09.313Z,906.5
2023-03-30T07:57:10.787Z,921.77778
2023-03-30T08:02:12.240Z,891.69231
2023-03-30T08:07:13.699Z,906.5
2023-03-30T08:12:15.205Z,953.83607
2023-03-30T08:17:16.789Z,891.69231
2023-03-30T08:22:18.300Z,891.69231
2023-03-30T08:27:19.840Z,891.69231
2023-03-30T08:32:21.340Z,937.54839
2023-03-30T08:37:22.825Z,953.83607
2023-03-30T08:42:24.325Z,953.83607
2023-03-30T08:47:25.731Z,970.66667
2023-03-30T08:52:27.192Z,970.66667
2023-03-30T08:57:28.689Z,937.54839
2023-03-30T09:02:30.161Z,906.5
2023-03-30T09:07:31.589Z,937.54839
2023-03-30T09:12:33.079Z,906.5
2023-03-30T09:17:34.620Z,921.77778
2023-03-30T09:22:36.300Z,921.77778
2023-03-30T09:27:37.704Z,891.69231
2023-03-30T09:32:39.333Z,891.69231
2023-03-30T09:37:40.819Z,891.69231
2023-03-30T09:42:42.447Z,877.33333
2023-03-30T09:47:43.856Z,906.5
2023-03-30T09:52:45.309Z,891.69231
2023-03-30T09:57:46.791Z,970.66667
2023-03-30T10:02:48.358Z,937.54839
2023-03-30T10:07:49.892Z,953.83607
2023-03-30T10:12:51.311Z,1024.70175
2023-03-30T10:17:52.760Z,1084.74074
2023-03-30T10:22:54.156Z,1064
2023-03-30T10:27:55.819Z,1084.74074
2023-03-30T10:32:57.458Z,1064
2023-03-30T10:37:58.997Z,1064
2023-03-30T10:43:00.400Z,1006.06897
2023-03-30T10:48:01.992Z,970.66667
2023-03-30T10:53:03.709Z,1064
2023-03-30T10:58:05.303Z,1006.06897
2023-03-30T11:03:06.981Z,1006.06897
2023-03-30T11:08:08.511Z,953.83607
2023-03-30T11:13:09.944Z,1044
2023-03-30T11:18:11.485Z,1024.70175
2023-03-30T11:23:13.111Z,1006.06897
2023-03-30T11:28:14.555Z,1044
2023-03-30T11:33:15.965Z,1106.26415
2023-03-30T11:38:17.620Z,1106.26415
2023-03-30T11:43:19.061Z,1084.74074
2023-03-30T11:48:20.567Z,1024.70175
2023-03-30T11:53:21.961Z,988.0678
2023-03-30T11:58:23.558Z,988.0678
2023-03-30T12:03:25.359Z,937.54839
2023-03-30T12:08:26.880Z,921.77778
2023-03-30T12:13:32.004Z,937.54839
2023-03-30T12:18:39.845Z,970.66667
2023-03-30T12:23:41.229Z,1024.70175
2023-03-30T12:29:00.811Z,1044
2023-03-30T12:34:14.605Z,970.66667
2023-03-30T12:39:15.982Z,921.77778
2023-03-30T12:44:17.428Z,953.83607
2023-03-30T12:49:18.851Z,921.77778
2023-03-30T12:54:20.291Z,891.69231
2023-03-30T12:59:21.675Z,953.83607
2023-03-30T13:04:24.186Z,937.54839
2023-03-30T13:09:25.751Z,953.83607
2023-03-30T13:14:27.157Z,921.77778
2023-03-30T13:19:28.569Z,754.52632
2023-03-30T13:24:30.023Z,723.74684
2023-03-30T13:29:31.444Z,723.74684
2023-03-30T13:34:32.956Z,754.52632
2023-03-30T13:39:34.345Z,811.60563
2023-03-30T13:44:35.808Z,836.75362
2023-03-30T13:49:37.201Z,811.60563
2023-03-30T13:54:38.864Z,836.75362
2023-03-30T13:59:40.366Z,824
2023-03-30T14:04:41.803Z,799.55556
2023-03-30T14:09:43.246Z,765.33333
2023-03-30T14:14:44.611Z,744
2023-03-30T14:19:46.009Z,744
2023-03-30T14:24:47.615Z,733.74359
2023-03-30T14:29:49.034Z,744
2023-03-30T14:34:50.405Z,714
2023-03-30T14:39:51.798Z,695.21951
2023-03-30T14:44:53.356Z,704.49383
2023-03-30T14:49:54.919Z,733.74359
2023-03-30T14:55:05.007Z,824
2023-03-30T15:00:07.438Z,811.60563
2023-03-30T15:05:08.827Z,824
2023-03-30T15:10:10.245Z,891.69231
2023-03-30T15:15:11.762Z,877.33333
2023-03-30T15:20:13.254Z,877.33333
2023-03-30T15:25:14.638Z,921.77778
2023-03-30T15:30:16.029Z,906.5
2023-03-30T15:35:17.504Z,953.83607
2023-03-30T15:40:18.940Z,937.54839
2023-03-30T15:45:20.334Z,970.66667
2023-03-30T15:50:21.749Z,1044
2023-03-30T15:55:23.159Z,1006.06897
2023-03-30T16:00:24.540Z,1006.06897
2023-03-30T16:05:25.990Z,1006.06897
2023-03-30T16:10:27.435Z,1044
2023-03-30T16:15:28.930Z,1044
2023-03-30T16:20:30.341Z,1176
2023-03-30T16:25:44.176Z,1084.74074
2023-03-30T16:30:46.869Z,0
2023-03-30T16:35:48.336Z,0
2023-03-30T16:40:49.976Z,0
2023-03-30T16:45:51.508Z,0
2023-03-30T16:50:53.075Z,0
2023-03-30T16:55:54.453Z,0
2023-03-30T17:00:55.930Z,0
2023-03-30T17:05:57.483Z,0
2023-03-30T17:10:58.886Z,0
2023-03-30T17:16:00.377Z,0
2023-03-30T17:21:01.853Z,1283.13043
2023-03-30T17:26:03.327Z,1227.33333
2023-03-30T17:31:05.142Z,1283.13043
2023-03-30T17:36:07.026Z,1484
2023-03-30T17:41:08.561Z,1608.86486
2023-03-30T17:46:10.099Z,1565.05263
2023-03-30T17:51:11.575Z,1565.05263
2023-03-30T17:56:13.141Z,1523.48718
2023-03-30T18:01:14.596Z,1376.55814
2023-03-30T18:06:16.008Z,1344
2023-03-30T18:11:17.400Z,1410.66667
2023-03-30T18:16:18.889Z,1446.43902
2023-03-30T18:21:20.327Z,1410.66667
2023-03-30T18:26:21.783Z,1344
2023-03-30T18:31:23.241Z,1312.88889
2023-03-30T18:36:24.779Z,1254.6383
2023-03-30T18:41:26.377Z,0
2023-03-30T18:46:27.849Z,0
2023-03-30T18:51:29.531Z,0
2023-03-30T18:56:31.183Z,0
2023-03-30T19:01:32.732Z,1376.55814
2023-03-30T19:06:34.221Z,1201.14286
2023-03-30T19:11:35.698Z,0
2023-03-30T19:16:37.209Z,0
2023-03-30T19:21:38.704Z,1128.61538
2023-03-30T19:26:40.145Z,0
2023-03-30T19:31:41.621Z,0
2023-03-30T19:36:43.174Z,1201.14286
2023-03-30T19:41:45.546Z,1151.84314
2023-03-30T19:46:47.189Z,1176
2023-03-30T19:51:48.641Z,1201.14286
2023-03-30T19:56:50.192Z,1227.33333
2023-03-30T20:01:51.803Z,1410.66667
2023-03-30T20:06:53.767Z,1376.55814
2023-03-30T20:11:55.186Z,1565.05263
2023-03-30T20:16:56.592Z,1523.48718
2023-03-30T20:21:58.105Z,1810.66667
2023-03-30T20:26:59.497Z,1704
2023-03-30T20:32:01.037Z,1704
2023-03-30T20:37:02.594Z,1869
2023-03-30T20:42:04.022Z,2144
2023-03-30T20:47:05.443Z,1810.66667
2023-03-30T20:52:06.895Z,1565.05263
2023-03-30T20:57:08.377Z,1704
2023-03-30T21:02:09.825Z,1810.66667
2023-03-30T21:07:11.270Z,1704
2023-03-30T21:12:12.663Z,1931.09677
2023-03-30T21:17:14.205Z,1931.09677
2023-03-30T21:22:15.621Z,2313.23077
2023-03-30T21:27:17.018Z,2225.48148
2023-03-30T21:32:18.602Z,2313.23077
2023-03-30T21:37:20.063Z,1997.33333
2023-03-30T21:42:21.466Z,2225.48148
2023-03-30T21:47:23.060Z,2068.13793
2023-03-30T21:52:24.456Z,2068.13793
2023-03-30T21:57:26.204Z,1931.09677
2023-03-30T22:02:27.777Z,2144
2023-03-30T22:07:29.257Z,2622.26087
2023-03-30T22:12:30.648Z,3366.22222
2023-03-30T22:17:32.120Z,3794
2023-03-30T22:22:33.537Z,4050.66667
2023-03-30T22:27:35.017Z,2744
2023-03-30T22:32:36.537Z,2313.23077
2023-03-30T22:37:37.966Z,2313.23077
2023-03-30T22:42:39.406Z,2744
2023-03-30T22:47:40.903Z,2877.33333
2023-03-30T22:52:42.318Z,2510.66667
2023-03-30T22:57:43.830Z,2877.33333
2023-03-30T23:02:45.356Z,2877.33333
2023-03-30T23:07:47.070Z,2510.66667
2023-03-30T23:12:48.470Z,2744
2023-03-30T23:17:49.972Z,3024
2023-03-30T23:22:51.451Z,3024
2023-03-30T23:27:52.898Z,3186.10526
2023-03-30T23:32:54.374Z,3024
2023-03-30T23:37:55.912Z,2622.26087
2023-03-30T23:42:57.317Z,2744
2023-03-30T23:47:58.775Z,3186.10526
2023-03-30T23:53:00.227Z,3024
2023-03-30T23:58:01.633Z,2622.26087
